Time;durP1;ratioP1;P1;durP2;ratioP2;P2;SDS_P1;SDS_P2;PMS_P1;PMS_P2;Temp;Humidity;BMP_temperature;BMP_pressure;BME280_temperature;BME280_humidity;BME280_pressure;Samples;Min_cycle;Max_cycle;Signal;HPM_P1;HPM_P2
2024/01/23 00:01:03;;;;;;;0.40;0.40;;;;;;;6.04;73.78;100751.97;15783113;28;20094;-49
2024/01/23 00:08:37;;;;;;;0.00;0.00;;;;;;;6.04;74.23;100757.28;15813714;28;20061;-48
2024/01/23 00:16:19;;;;;;;0.00;0.00;;;;;;;6.08;74.19;100755.91;15863615;28;20611;-47
2024/01/23 00:23:53;;;;;;;0.00;0.00;;;;;;;6.03;73.77;100763.63;15845908;28;20519;-49
2024/01/23 00:31:39;;;;;;;0.00;0.00;;;;;;;5.96;73.54;100772.50;15863335;28;20200;-50
2024/01/23 00:39:13;;;;;;;3.60;2.17;;;;;;;6.16;71.85;100771.03;15862139;28;20504;-49
2024/01/23 00:46:48;;;;;;;;;;;;;;;6.16;72.17;100787.00;15840214;28;20044;-47
2024/01/23 00:54:21;;;;;;;0.00;0.00;;;;;;;6.10;72.69;100814.34;15780072;28;19969;-48
2024/01/23 01:01:56;;;;;;;0.00;0.00;;;;;;;5.75;78.00;100821.09;15797598;28;20047;-49
2024/01/23 01:09:34;;;;;;;0.00;0.00;;;;;;;5.40;79.52;100820.63;15820671;28;20063;-46
2024/01/23 01:17:09;;;;;;;0.00;0.00;;;;;;;5.54;79.65;100809.22;15861190;28;20123;-44
2024/01/23 01:24:43;;;;;;;0.00;0.00;;;;;;;5.44;78.77;100800.63;15860522;28;20047;-50
2024/01/23 01:32:22;;;;;;;0.00;0.00;;;;;;;5.93;77.65;100797.69;15858685;28;20042;-47
2024/01/23 01:40:01;;;;;;;6.43;1.40;;;;;;;6.06;76.84;100803.25;15829963;28;20048;-50
2024/01/23 01:47:36;;;;;;;0.00;0.00;;;;;;;6.08;75.49;100813.72;15812219;28;20099;-45
2024/01/23 01:55:11;;;;;;;0.00;0.00;;;;;;;6.01;76.35;100813.59;15795998;28;20047;-49
2024/01/23 02:02:50;;;;;;;0.00;0.00;;;;;;;5.65;75.89;100828.50;15799131;28;20401;-48
2024/01/23 02:10:25;;;;;;;0.00;0.00;;;;;;;5.92;74.85;100833.31;15824085;28;20052;-49
2024/01/23 02:18:01;;;;;;;0.10;0.10;;;;;;;5.27;77.98;100837.16;15858717;28;20126;-48
2024/01/23 02:25:36;;;;;;;0.00;0.00;;;;;;;5.04;78.70;100834.44;15858907;28;20043;-51
2024/01/23 02:33:09;;;;;;;0.00;0.00;;;;;;;5.18;79.27;100838.22;15858462;28;20039;-48
2024/01/23 02:40:46;;;;;;;0.00;0.00;;;;;;;5.06;80.47;100831.59;15845436;28;20471;-45
2024/01/23 02:48:19;;;;;;;0.00;0.00;;;;;;;5.09;79.82;100840.06;15834134;28;20472;-46
2024/01/23 02:55:54;;;;;;;;;;;;;;;5.36;78.48;100835.28;15805709;28;20067;-47
2024/01/23 03:03:29;;;;;;;0.00;0.00;;;;;;;5.03;79.59;100832.75;15788323;28;19927;-48
2024/01/23 03:11:04;;;;;;;0.00;0.00;;;;;;;4.96;79.51;100850.41;15839425;28;20537;-48
2024/01/23 03:18:39;;;;;;;0.00;0.00;;;;;;;5.03;79.00;100847.88;15848898;28;20052;-46
2024/01/23 03:26:14;;;;;;;;;;;;;;;5.08;78.49;100850.84;15849692;28;20397;-46
2024/01/23 03:33:47;;;;;;;0.00;0.00;;;;;;;5.18;78.26;100875.47;15867147;28;19920;-50
2024/01/23 03:41:25;;;;;;;0.00;0.00;;;;;;;5.10;79.27;100875.47;15843399;28;20027;-48
2024/01/23 03:48:59;;;;;;;0.00;0.00;;;;;;;5.15;77.66;100867.81;15864681;28;20054;-45
2024/01/23 03:56:34;;;;;;;0.22;0.22;;;;;;;4.83;78.96;100897.97;15865110;28;20122;-45
2024/01/23 04:04:14;;;;;;;0.00;0.00;;;;;;;4.93;78.21;100897.78;15864841;28;20070;-47
2024/01/23 04:11:50;;;;;;;1.30;1.08;;;;;;;5.05;77.84;100907.09;15863827;28;20039;-48
2024/01/23 04:19:23;;;;;;;0.00;0.00;;;;;;;4.86;78.23;100919.75;15864675;28;20044;-46
2024/01/23 04:27:15;;;;;;;0.00;0.00;;;;;;;4.55;79.07;100940.03;15863037;28;20090;-45
2024/01/23 04:34:50;;;;;;;0.00;0.00;;;;;;;4.69;78.75;100944.69;15844722;28;20126;-46
2024/01/23 04:42:25;;;;;;;0.00;0.00;;;;;;;4.84;77.63;100963.47;15832559;28;20101;-46
2024/01/23 04:50:00;;;;;;;0.00;0.00;;;;;;;4.85;78.00;100968.63;15855100;28;20109;-49
2024/01/23 04:57:37;;;;;;;0.00;0.00;;;;;;;4.89;77.36;100963.78;15862640;28;20079;-45
2024/01/23 05:05:10;;;;;;;0.00;0.00;;;;;;;4.57;78.11;100994.72;15862682;28;20035;-45
2024/01/23 05:12:45;;;;;;;0.10;0.10;;;;;;;4.61;77.70;101011.97;15860765;28;20381;-50
2024/01/23 05:20:19;;;;;;;0.00;0.00;;;;;;;4.63;77.34;101032.28;15842899;28;20066;-47
2024/01/23 05:27:54;;;;;;;0.00;0.00;;;;;;;4.84;76.44;101051.22;15860968;28;20407;-50
2024/01/23 05:35:28;;;;;;;0.00;0.00;;;;;;;4.81;78.27;101067.53;15841820;28;20075;-45
2024/01/23 05:43:04;;;;;;;0.00;0.00;;;;;;;4.91;79.14;101080.66;15853240;28;20040;-47
2024/01/23 05:50:38;;;;;;;0.00;0.00;;;;;;;4.44;80.91;101094.53;15849214;28;20044;-48
2024/01/23 05:58:14;;;;;;;0.00;0.00;;;;;;;4.83;80.51;101102.75;15860045;28;20104;-44
2024/01/23 06:05:48;;;;;;;0.73;0.52;;;;;;;4.44;80.90;101100.69;15841512;28;20039;-50
2024/01/23 06:13:23;;;;;;;0.00;0.00;;;;;;;4.55;80.82;101123.47;15860947;28;20036;-46
2024/01/23 06:20:58;;;;;;;0.00;0.00;;;;;;;4.69;79.94;101122.84;15853274;28;20031;-47
2024/01/23 06:28:32;;;;;;;0.00;0.00;;;;;;;4.54;80.29;101148.38;15872007;28;20066;-45
2024/01/23 06:36:07;;;;;;;0.00;0.00;;;;;;;5.04;78.33;101147.53;15852267;28;20122;-47
2024/01/23 06:43:46;;;;;;;0.30;0.30;;;;;;;4.75;78.18;101166.56;15872853;28;20051;-46
2024/01/23 06:51:21;;;;;;;0.00;0.00;;;;;;;4.92;77.10;101172.75;15854361;28;20043;-49
2024/01/23 06:58:56;;;;;;;0.00;0.00;;;;;;;5.04;76.37;101190.94;15856075;28;20423;-49
2024/01/23 07:06:30;;;;;;;0.10;0.10;;;;;;;5.14;75.81;101208.56;15872451;28;20035;-46
2024/01/23 07:14:06;;;;;;;4.43;1.80;;;;;;;5.16;75.10;101219.88;15872375;22;20040;-49
2024/01/23 07:21:42;;;;;;;0.00;0.00;;;;;;;5.43;73.81;101234.72;15827466;28;20364;-51
2024/01/23 07:29:17;;;;;;;0.00;0.00;;;;;;;5.79;72.41;101254.75;15869937;28;20039;-48
2024/01/23 07:36:51;;;;;;;0.00;0.00;;;;;;;5.69;73.04;101255.88;15852525;28;20067;-47
2024/01/23 07:44:26;;;;;;;0.00;0.00;;;;;;;5.61;73.18;101259.38;15852436;28;20599;-51
2024/01/23 07:52:05;;;;;;;0.00;0.00;;;;;;;5.36;74.04;101253.16;15853561;28;20068;-48
2024/01/23 07:59:41;;;;;;;0.00;0.00;;;;;;;5.95;72.30;101259.25;15869245;28;20122;-53
2024/01/23 08:07:14;;;;;;;0.00;0.00;;;;;;;5.57;73.27;101271.34;15861898;28;20044;-47
2024/01/23 08:14:50;;;;;;;2.83;1.65;;;;;;;5.75;73.06;101271.22;15872129;28;20043;-49
2024/01/23 08:22:23;;;;;;;0.00;0.00;;;;;;;5.89;72.14;101286.53;15835913;28;20040;-49
2024/01/23 08:29:59;;;;;;;0.00;0.00;;;;;;;6.05;71.18;101293.72;15849827;28;20326;-50
2024/01/23 08:37:32;;;;;;;0.00;0.00;;;;;;;5.89;71.73;101302.53;15839036;28;20565;-48
2024/01/23 08:45:08;;;;;;;0.00;0.00;;;;;;;6.00;71.13;101310.22;15839129;28;20369;-49
2024/01/23 08:52:43;;;;;;;0.00;0.00;;;;;;;5.99;70.91;101337.03;15857552;28;20048;-50
2024/01/23 09:00:19;;;;;;;0.00;0.00;;;;;;;6.09;71.27;101340.38;15844153;28;20043;-50
2024/01/23 09:07:55;;;;;;;0.00;0.00;;;;;;;6.10;71.21;101358.84;15854505;28;20032;-51
2024/01/23 09:15:31;;;;;;;0.00;0.00;;;;;;;6.16;70.70;101385.84;15844778;28;20039;-49
2024/01/23 09:23:06;;;;;;;0.00;0.00;;;;;;;6.33;69.90;101375.00;15847192;28;20032;-54
2024/01/23 09:30:40;;;;;;;0.63;0.63;;;;;;;6.42;70.12;101372.34;15845122;28;20048;-51
2024/01/23 09:38:16;;;;;;;3.85;2.45;;;;;;;6.47;70.37;101402.84;15869847;28;20404;-48
2024/01/23 09:45:51;;;;;;;0.00;0.00;;;;;;;6.45;69.90;101399.53;15851234;28;20044;-49
2024/01/23 09:53:27;;;;;;;0.00;0.00;;;;;;;6.69;69.02;101409.34;15871903;28;20035;-47
2024/01/23 10:01:03;;;;;;;0.13;0.13;;;;;;;6.88;68.77;101411.66;15868363;28;20045;-48
2024/01/23 10:08:37;;;;;;;0.00;0.00;;;;;;;6.83;69.25;101431.84;15864515;27;20561;-51
2024/01/23 10:16:15;;;;;;;0.00;0.00;;;;;;;6.75;69.02;101439.84;15858541;28;20042;-51
2024/01/23 10:23:50;;;;;;;0.00;0.00;;;;;;;6.72;68.83;101430.34;15876540;28;20075;-55
2024/01/23 10:31:25;;;;;;;1.45;0.32;;;;;;;6.76;68.78;101450.38;15875510;28;20059;-51
2024/01/23 10:38:58;;;;;;;0.00;0.00;;;;;;;7.15;67.97;101444.28;15857265;28;20050;-49
2024/01/23 10:46:34;;;;;;;0.00;0.00;;;;;;;7.40;67.88;101464.56;15860387;28;20407;-54
2024/01/23 10:54:14;;;;;;;0.00;0.00;;;;;;;7.47;67.58;101464.75;15855480;28;20061;-49
2024/01/23 11:01:54;;;;;;;0.17;0.15;;;;;;;7.58;66.67;101480.38;15873325;28;20487;-48
2024/01/23 11:09:37;;;;;;;3.45;1.20;;;;;;;7.51;66.02;101471.41;15864679;28;20047;-48
2024/01/23 11:17:14;;;;;;;0.00;0.00;;;;;;;7.34;67.65;101491.16;15867736;28;20089;-49
2024/01/23 11:24:48;;;;;;;0.35;0.35;;;;;;;8.01;65.53;101502.25;15851354;28;20468;-51
2024/01/23 11:32:25;;;;;;;0.05;0.05;;;;;;;8.77;62.45;101514.03;15871357;28;20074;-48
2024/01/23 11:40:03;;;;;;;0.00;0.00;;;;;;;9.19;60.31;101518.84;15867783;28;20047;-48
2024/01/23 11:47:38;;;;;;;0.00;0.00;;;;;;;10.12;58.02;101520.13;15840453;28;20062;-50
2024/01/23 11:55:12;;;;;;;0.00;0.00;;;;;;;9.29;59.82;101534.66;15867148;28;20531;-49
2024/01/23 12:02:48;;;;;;;0.00;0.00;;;;;;;8.58;61.44;101538.56;15867795;28;20118;-51
2024/01/23 12:10:24;;;;;;;0.00;0.00;;;;;;;8.91;60.16;101550.72;15859081;28;20131;-52
2024/01/23 12:17:59;;;;;;;0.00;0.00;;;;;;;10.32;56.00;101557.13;15872884;28;20027;-48
2024/01/23 12:25:33;;;;;;;0.00;0.00;;;;;;;9.29;59.03;101579.38;15870040;28;20039;-51
2024/01/23 12:33:15;;;;;;;0.10;0.10;;;;;;;8.71;60.87;101596.84;15849152;28;20107;-49
2024/01/23 12:40:52;;;;;;;0.30;0.15;;;;;;;8.13;61.92;101609.66;15865170;28;20044;-50
2024/01/23 12:48:29;;;;;;;0.95;0.52;;;;;;;8.29;62.34;101604.22;15866871;28;20037;-53
2024/01/23 12:56:03;;;;;;;0.00;0.00;;;;;;;8.35;62.24;101606.22;15860438;28;20092;-48
2024/01/23 13:03:38;;;;;;;0.00;0.00;;;;;;;8.03;62.81;101617.88;15831942;28;20046;-49
2024/01/23 13:11:14;;;;;;;0.00;0.00;;;;;;;7.78;62.90;101586.88;15819891;22;20105;-51
2024/01/23 13:18:49;;;;;;;0.00;0.00;;;;;;;8.54;61.65;101605.00;15781784;28;20591;-50
2024/01/23 13:26:25;;;;;;;0.10;0.10;;;;;;;8.45;60.78;101614.06;15800553;28;20036;-47
2024/01/23 13:34:00;;;;;;;1.75;1.55;;;;;;;7.82;61.03;101614.94;15800085;28;20044;-49
2024/01/23 13:41:34;;;;;;;0.00;0.00;;;;;;;7.96;61.86;101624.06;15782818;28;20048;-49
2024/01/23 13:49:09;;;;;;;0.20;0.20;;;;;;;7.73;62.55;101643.50;15785071;28;20046;-49
2024/01/23 13:56:42;;;;;;;0.00;0.00;;;;;;;7.76;63.60;101664.53;15780782;28;20036;-51
2024/01/23 14:04:17;;;;;;;0.00;0.00;;;;;;;7.56;63.14;101689.97;15799271;28;20063;-51
2024/01/23 14:11:51;;;;;;;0.35;0.35;;;;;;;7.81;62.53;101723.69;15796389;28;20044;-51
2024/01/23 14:19:26;;;;;;;;;;;;;;;7.89;61.53;101742.38;15799850;28;20097;-52
2024/01/23 14:26:59;;;;;;;0.70;0.65;;;;;;;7.71;62.97;101757.75;15798818;28;19924;-51
2024/01/23 14:34:34;;;;;;;0.47;0.47;;;;;;;7.49;63.46;101764.56;15801050;28;20063;-50
2024/01/23 14:42:07;;;;;;;1.45;1.13;;;;;;;7.53;63.03;101776.59;15785764;28;20075;-50
2024/01/23 14:49:42;;;;;;;0.00;0.00;;;;;;;7.54;62.52;101788.94;15813442;28;20048;-52
2024/01/23 14:57:16;;;;;;;0.00;0.00;;;;;;;7.28;63.50;101789.09;15809332;28;20067;-50
2024/01/23 15:04:52;;;;;;;0.25;0.25;;;;;;;7.24;63.38;101790.41;15790798;28;20530;-51
2024/01/23 15:12:26;;;;;;;0.15;0.15;;;;;;;7.31;62.78;101806.59;15789960;28;20048;-53
2024/01/23 15:20:02;;;;;;;;;;;;;;;7.30;62.24;101799.59;15809022;28;20476;-50
2024/01/23 15:27:37;;;;;;;1.75;0.30;;;;;;;7.02;62.60;101812.34;15807606;28;19973;-49
2024/01/23 15:35:11;;;;;;;;;;;;;;;7.15;61.87;101807.38;15802907;28;20152;-50
2024/01/23 15:42:47;;;;;;;0.00;0.00;;;;;;;6.88;61.68;101811.13;15783905;28;20023;-51
2024/01/23 15:50:40;;;;;;;0.25;0.25;;;;;;;7.05;61.03;101802.19;15803711;28;20051;-48
2024/01/23 15:58:16;;;;;;;0.17;0.17;;;;;;;7.27;60.87;101775.88;15785487;28;20093;-48
2024/01/23 16:05:51;;;;;;;0.00;0.00;;;;;;;7.35;60.60;101797.25;15802187;28;20048;-47
2024/01/23 16:13:24;;;;;;;0.43;0.20;;;;;;;7.44;60.19;101803.47;15800925;28;20036;-50
2024/01/23 16:21:00;;;;;;;;;;;;;;;7.14;60.90;101806.56;15799692;28;20106;-53
2024/01/23 16:28:35;;;;;;;0.00;0.00;;;;;;;6.80;62.34;101792.38;15803912;28;19920;-49
2024/01/23 16:36:10;;;;;;;0.00;0.00;;;;;;;6.56;64.05;101809.94;15803697;28;20039;-49
2024/01/23 16:43:43;;;;;;;0.70;0.70;;;;;;;6.55;64.39;101816.28;15804193;28;20052;-50
2024/01/23 16:51:21;;;;;;;0.20;0.20;;;;;;;6.32;65.83;101813.28;15789173;28;20500;-49
2024/01/23 16:58:55;;;;;;;0.00;0.00;;;;;;;6.13;66.40;101806.31;15800958;28;20040;-49
2024/01/23 17:06:30;;;;;;;0.20;0.20;;;;;;;6.14;66.50;101813.31;15799869;28;20048;-48
2024/01/23 17:14:03;;;;;;;0.70;0.70;;;;;;;5.87;66.94;101808.06;15797389;28;20091;-53
2024/01/23 17:21:39;;;;;;;1.05;0.93;;;;;;;5.73;67.10;101795.28;15798029;28;20089;-48
2024/01/23 17:29:13;;;;;;;0.00;0.00;;;;;;;5.73;66.40;101796.09;15798019;28;20065;-50
2024/01/23 17:36:47;;;;;;;;;;;;;;;5.95;65.87;101802.84;15800389;28;20058;-51
2024/01/23 17:44:22;;;;;;;0.00;0.00;;;;;;;5.88;65.95;101791.09;15783945;28;19920;-51
2024/01/23 17:51:56;;;;;;;;;;;;;;;5.50;65.12;101713.19;15802595;28;20084;-50
2024/01/23 17:59:30;;;;;;;0.20;0.20;;;;;;;5.75;66.04;101772.00;15796071;28;20410;-53
2024/01/23 18:07:06;;;;;;;0.30;0.28;;;;;;;5.83;65.31;101788.91;15796134;28;20041;-55
2024/01/23 18:14:39;;;;;;;0.20;0.20;;;;;;;6.04;64.73;101798.41;15806788;28;20140;-53
2024/01/23 18:22:17;;;;;;;0.00;0.00;;;;;;;5.67;65.72;101790.56;15789289;28;20101;-50
2024/01/23 18:29:52;;;;;;;0.00;0.00;;;;;;;5.52;66.49;101779.59;15789787;28;20063;-50
2024/01/23 18:37:27;;;;;;;0.68;0.65;;;;;;;5.40;66.25;101772.81;15807275;28;20443;-53
2024/01/23 18:45:00;;;;;;;0.43;0.43;;;;;;;5.19;67.29;101770.44;15792114;28;20444;-50
2024/01/23 18:52:36;;;;;;;1.20;1.10;;;;;;;4.94;67.98;101770.16;15809732;28;20044;-52
2024/01/23 19:00:12;;;;;;;0.10;0.10;;;;;;;4.64;68.84;101759.81;15802215;28;20059;-51
2024/01/23 19:07:47;;;;;;;1.17;1.08;;;;;;;4.77;68.76;101742.53;15773558;28;20119;-50
2024/01/23 19:15:21;;;;;;;0.38;0.38;;;;;;;4.77;68.87;101737.22;15809759;28;20568;-46
2024/01/23 19:22:56;;;;;;;;;;;;;;;4.71;68.59;101726.31;15808285;28;20097;-48
2024/01/23 19:30:29;;;;;;;0.00;0.00;;;;;;;4.51;69.35;101713.09;15807383;28;20407;-50
2024/01/23 19:38:05;;;;;;;0.05;0.05;;;;;;;4.61;68.23;101689.97;15806906;28;20063;-49
2024/01/23 19:45:40;;;;;;;1.65;1.55;;;;;;;4.23;70.33;101693.63;15792068;28;20131;-52
2024/01/23 19:53:16;;;;;;;0.00;0.00;;;;;;;4.35;69.90;101683.66;15805425;28;20040;-48
2024/01/23 20:00:50;;;;;;;0.00;0.00;;;;;;;4.33;69.73;101667.03;15802539;28;20745;-48
2024/01/23 20:08:25;;;;;;;0.00;0.00;;;;;;;3.88;71.14;101650.97;15801650;28;20051;-50
2024/01/23 20:15:59;;;;;;;4.20;0.40;;;;;;;4.13;70.65;101625.56;15801377;28;20090;-45
2024/01/23 20:23:35;;;;;;;0.10;0.10;;;;;;;4.21;70.95;101636.31;15801025;28;20477;-50
2024/01/23 20:31:09;;;;;;;0.52;0.52;;;;;;;3.84;72.21;101610.59;15782842;28;20473;-46
2024/01/23 20:38:46;;;;;;;0.00;0.00;;;;;;;4.06;71.67;101604.09;15782942;28;20043;-49
2024/01/23 20:46:21;;;;;;;0.22;0.22;;;;;;;4.07;71.81;101572.06;15786608;28;20149;-49
2024/01/23 20:53:57;;;;;;;0.20;0.20;;;;;;;3.95;72.05;101556.44;15799502;28;20068;-50
2024/01/23 21:01:32;;;;;;;0.00;0.00;;;;;;;4.24;71.22;101543.88;15781331;28;20698;-50
2024/01/23 21:09:07;;;;;;;0.43;0.43;;;;;;;4.18;72.15;101525.84;15799026;28;20074;-46
2024/01/23 21:16:45;;;;;;;0.00;0.00;;;;;;;4.35;71.60;101505.59;15779909;28;20048;-51
2024/01/23 21:24:19;;;;;;;0.00;0.00;;;;;;;4.41;71.53;101490.88;15763283;28;20064;-48
2024/01/23 21:31:54;;;;;;;1.00;0.95;;;;;;;4.30;72.02;101487.44;15780138;28;20047;-47
2024/01/23 21:39:28;;;;;;;0.00;0.00;;;;;;;4.44;71.53;101469.31;15797591;28;20048;-50
2024/01/23 21:47:02;;;;;;;0.00;0.00;;;;;;;4.37;72.08;101463.75;15782586;28;20596;-49
2024/01/23 21:54:37;;;;;;;0.00;0.00;;;;;;;4.59;71.13;101436.69;15796684;28;20162;-46
2024/01/23 22:02:13;;;;;;;0.00;0.00;;;;;;;4.65;71.08;101419.28;15789148;28;20043;-50
2024/01/23 22:09:48;;;;;;;0.00;0.00;;;;;;;4.68;71.12;101400.38;15796225;28;20458;-51
2024/01/23 22:17:24;;;;;;;0.00;0.00;;;;;;;4.98;70.33;101388.41;15778938;28;20043;-48
2024/01/23 22:24:59;;;;;;;;;;;;;;;4.83;72.22;101382.84;15778668;28;20040;-48
2024/01/23 22:32:33;;;;;;;0.22;0.22;;;;;;;4.94;73.44;101357.81;15796485;28;19927;-48
2024/01/23 22:40:10;;;;;;;0.10;0.10;;;;;;;4.75;75.29;101313.66;15779015;28;20452;-46
2024/01/23 22:47:45;;;;;;;0.00;0.00;;;;;;;4.76;76.64;101293.22;15799177;28;20040;-51
2024/01/23 22:55:20;;;;;;;0.00;0.00;;;;;;;4.75;77.74;101267.59;15779162;28;20459;-51
2024/01/23 23:02:53;;;;;;;0.00;0.00;;;;;;;4.49;79.53;101227.78;15805804;28;20131;-48
2024/01/23 23:10:28;;;;;;;;;;;;;;;4.48;80.35;101210.19;15806018;28;20063;-47
2024/01/23 23:18:03;;;;;;;0.00;0.00;;;;;;;4.52;81.32;101184.91;15786778;28;20022;-49
2024/01/23 23:25:56;;;;;;;0.00;0.00;;;;;;;4.51;82.44;101159.34;15775514;28;20036;-47
2024/01/23 23:33:47;;;;;;;0.00;0.00;;;;;;;4.23;83.27;101129.50;15789822;28;20063;-46
2024/01/23 23:41:32;;;;;;;0.25;0.25;;;;;;;4.21;84.27;101100.44;15803782;28;20048;-48
2024/01/23 23:49:05;;;;;;;0.00;0.00;;;;;;;4.28;85.07;101072.22;15807456;28;20040;-45
2024/01/23 23:56:42;;;;;;;0.00;0.00;;;;;;;4.29;85.95;101054.44;15802639;28;20493;-48
